Time;durP1;ratioP1;P1;durP2;ratioP2;P2;SDS_P1;SDS_P2;PMS_P1;PMS_P2;Temp;Humidity;BMP_temperature;BMP_pressure;BME280_temperature;BME280_humidity;BME280_pressure;Samples;Min_cycle;Max_cycle;Signal;HPM_P1;HPM_P2
2021/05/12 05:38:01;;;;;;;4.63;3.97;;;15.10;99.90;;;;;;5117333;22;20506;-41
2021/05/12 05:40:28;;;;;;;5.33;3.90;;;15.20;99.90;;;;;;4974351;28;20450;-46
2021/05/12 05:42:58;;;;;;;4.67;3.40;;;15.30;99.90;;;;;;4956346;28;20807;-44
2021/05/12 05:45:25;;;;;;;4.57;3.57;;;15.30;99.90;;;;;;4968055;28;20442;-41
2021/05/12 05:47:51;;;;;;;5.97;4.17;;;15.30;99.90;;;;;;4969135;28;20471;-42
2021/05/12 05:50:20;;;;;;;5.33;4.27;;;15.30;99.90;;;;;;4963017;28;20494;-44
2021/05/12 05:52:46;;;;;;;5.07;4.43;;;15.40;99.90;;;;;;4959767;28;20490;-43
2021/05/12 05:55:14;;;;;;;5.97;4.47;;;15.40;99.90;;;;;;4959368;28;20476;-45
2021/05/12 05:57:41;;;;;;;6.00;3.77;;;15.40;99.90;;;;;;4963842;28;20452;-42
2021/05/12 06:00:08;;;;;;;6.20;4.00;;;15.40;99.90;;;;;;4956054;28;20444;-42
2021/05/12 06:02:35;;;;;;;8.03;5.93;;;15.50;99.90;;;;;;4958604;28;20483;-48
2021/05/12 06:05:02;;;;;;;6.80;4.20;;;15.70;99.90;;;;;;4954912;28;20470;-45
2021/05/12 06:07:28;;;;;;;6.07;4.23;;;15.60;99.90;;;;;;4956825;28;20467;-42
2021/05/12 06:09:54;;;;;;;8.93;3.77;;;15.70;99.90;;;;;;4956801;28;20469;-45
2021/05/12 06:12:21;;;;;;;7.17;4.20;;;15.70;99.90;;;;;;4956204;29;20537;-42
2021/05/12 06:14:48;;;;;;;4.63;3.43;;;15.70;99.90;;;;;;4955845;28;20814;-43
2021/05/12 06:17:14;;;;;;;9.00;3.53;;;15.70;99.90;;;;;;4968360;28;20451;-43
2021/05/12 06:19:40;;;;;;;18.40;4.23;;;15.70;99.90;;;;;;4975735;28;20462;-43
2021/05/12 06:22:06;;;;;;;8.90;4.40;;;15.70;99.90;;;;;;4975778;28;20439;-43
2021/05/12 06:24:32;;;;;;;4.53;3.47;;;15.70;99.90;;;;;;4974775;28;20447;-42
2021/05/12 06:26:59;;;;;;;9.43;5.50;;;15.80;99.90;;;;;;4975769;28;20451;-46
2021/05/12 06:29:26;;;;;;;7.27;4.47;;;16.00;99.90;;;;;;4974913;28;20553;-41
2021/05/12 06:31:52;;;;;;;4.13;3.73;;;16.10;99.90;;;;;;4958456;28;20952;-41
2021/05/12 06:34:19;;;;;;;7.10;4.50;;;16.20;99.90;;;;;;4954399;28;20452;-46
2021/05/12 06:36:45;;;;;;;6.17;4.07;;;16.30;99.90;;;;;;4954718;28;20484;-43
2021/05/12 06:39:11;;;;;;;7.40;4.30;;;16.50;99.90;;;;;;4955686;28;20443;-42
2021/05/12 06:41:37;;;;;;;5.70;4.17;;;16.30;99.90;;;;;;4956193;28;20456;-44
2021/05/12 06:44:04;;;;;;;8.70;5.43;;;16.40;99.90;;;;;;4958787;28;20773;-47
2021/05/12 06:46:31;;;;;;;11.50;5.40;;;16.30;99.90;;;;;;4956732;28;20589;-43
2021/05/12 06:48:57;;;;;;;11.87;5.70;;;16.30;99.90;;;;;;4955841;28;20448;-49
2021/05/12 06:51:25;;;;;;;6.87;5.37;;;16.40;99.90;;;;;;4955920;28;20490;-46
2021/05/12 06:53:52;;;;;;;7.03;5.70;;;16.30;99.90;;;;;;4954516;28;20452;-47
2021/05/12 06:56:18;;;;;;;8.17;5.67;;;16.30;99.90;;;;;;4955748;28;20447;-42
2021/05/12 06:58:44;;;;;;;16.30;6.40;;;16.30;99.90;;;;;;4955493;28;20781;-45
2021/05/12 07:01:13;;;;;;;7.43;4.90;;;16.20;99.90;;;;;;4955480;28;20456;-42
2021/05/12 07:03:40;;;;;;;9.23;5.70;;;16.00;99.90;;;;;;4955701;28;20501;-44
2021/05/12 07:06:06;;;;;;;8.90;5.50;;;15.90;99.90;;;;;;4956230;28;20447;-42
2021/05/12 07:08:33;;;;;;;6.43;4.83;;;15.80;99.90;;;;;;4956603;28;20769;-42
2021/05/12 07:11:00;;;;;;;9.17;5.30;;;15.80;99.90;;;;;;4956659;28;20507;-47
2021/05/12 07:13:26;;;;;;;6.13;4.80;;;15.90;99.90;;;;;;4955495;28;20781;-42
2021/05/12 07:15:52;;;;;;;5.83;4.73;;;15.80;99.90;;;;;;4955575;28;20463;-44
2021/05/12 07:18:18;;;;;;;17.03;6.20;;;15.70;99.90;;;;;;4955292;28;20479;-44
2021/05/12 07:20:45;;;;;;;8.20;6.20;;;15.70;99.90;;;;;;4955258;28;20463;-43
2021/05/12 07:23:18;;;;;;;10.13;6.97;;;15.70;99.90;;;;;;4955689;28;20452;-42
2021/05/12 07:25:47;;;;;;;11.97;6.90;;;15.60;99.90;;;;;;4956208;28;20448;-42
2021/05/12 07:28:14;;;;;;;9.00;6.63;;;15.60;99.90;;;;;;4956026;28;20459;-43
2021/05/12 07:30:40;;;;;;;7.47;6.07;;;15.60;99.90;;;;;;4956076;28;20491;-42
2021/05/12 07:33:07;;;;;;;7.57;6.60;;;15.60;99.90;;;;;;4955797;28;20451;-45
2021/05/12 07:35:33;;;;;;;10.13;5.43;;;15.70;99.90;;;;;;4955331;28;20467;-44
2021/05/12 07:38:00;;;;;;;10.33;6.97;;;15.80;99.90;;;;;;4955194;28;20487;-44
2021/05/12 07:40:31;;;;;;;11.73;6.57;;;15.90;99.90;;;;;;4954889;28;20459;-46
2021/05/12 07:42:58;;;;;;;9.80;6.80;;;16.00;99.90;;;;;;4954754;28;20432;-46
2021/05/12 07:45:25;;;;;;;13.73;8.00;;;16.10;99.90;;;;;;4955198;28;20481;-45
2021/05/12 07:47:51;;;;;;;11.73;7.90;;;16.20;99.90;;;;;;4957415;28;20455;-42
2021/05/12 07:50:17;;;;;;;9.00;5.87;;;16.30;99.90;;;;;;4958632;28;20456;-44
2021/05/12 07:52:44;;;;;;;12.80;7.13;;;16.40;99.90;;;;;;4958132;28;20491;-44
2021/05/12 07:55:11;;;;;;;13.83;7.57;;;16.40;99.90;;;;;;4958687;28;20467;-42
2021/05/12 07:57:39;;;;;;;9.83;7.20;;;16.20;99.90;;;;;;4958332;28;20455;-48
2021/05/12 08:00:07;;;;;;;9.70;7.63;;;16.10;99.90;;;;;;4957918;28;20499;-42
2021/05/12 08:02:34;;;;;;;14.63;8.13;;;16.10;99.90;;;;;;4958157;28;20459;-46
2021/05/12 08:05:00;;;;;;;13.17;7.80;;;16.10;99.90;;;;;;4958335;28;20794;-43
2021/05/12 08:07:26;;;;;;;10.67;7.07;;;16.10;99.90;;;;;;4958006;28;20444;-42
2021/05/12 08:09:52;;;;;;;15.07;8.73;;;16.10;99.90;;;;;;4958586;28;20468;-43
2021/05/12 08:12:20;;;;;;;12.83;7.50;;;16.10;99.90;;;;;;4958372;28;20557;-42
2021/05/12 08:14:46;;;;;;;18.23;8.07;;;16.10;99.90;;;;;;4959049;28;20771;-42
2021/05/12 08:17:12;;;;;;;15.53;9.20;;;16.10;99.90;;;;;;4958634;28;20517;-48
2021/05/12 08:19:38;;;;;;;12.77;8.27;;;16.10;99.90;;;;;;4957558;28;20464;-45
2021/05/12 08:22:05;;;;;;;9.20;6.70;;;16.10;99.90;;;;;;4957880;28;20443;-43
2021/05/12 08:24:32;;;;;;;15.30;8.77;;;16.20;99.90;;;;;;4958276;28;20455;-44
2021/05/12 08:27:00;;;;;;;13.67;9.30;;;16.30;99.90;;;;;;4957766;28;20463;-47
2021/05/12 08:29:27;;;;;;;10.90;7.00;;;16.30;99.90;;;;;;4957649;28;20812;-43
2021/05/12 08:31:53;;;;;;;13.67;9.00;;;16.20;99.90;;;;;;4957746;28;20479;-46
2021/05/12 08:34:19;;;;;;;13.37;9.50;;;16.20;99.90;;;;;;4957450;28;20464;-45
2021/05/12 08:36:45;;;;;;;13.67;7.83;;;16.10;99.90;;;;;;4957507;28;20482;-44
2021/05/12 08:39:12;;;;;;;13.70;9.20;;;15.90;99.90;;;;;;4957466;28;20459;-43
2021/05/12 08:41:40;;;;;;;18.63;8.53;;;15.90;99.90;;;;;;4958141;28;20452;-41
2021/05/12 08:44:08;;;;;;;11.90;8.00;;;16.10;99.90;;;;;;4958946;28;20448;-47
2021/05/12 08:46:36;;;;;;;16.27;8.90;;;16.10;99.90;;;;;;4957567;28;20456;-45
2021/05/12 08:49:04;;;;;;;16.73;10.10;;;16.10;99.90;;;;;;4957846;28;20555;-41
2021/05/12 08:51:30;;;;;;;12.97;9.70;;;16.00;99.90;;;;;;4957711;28;20500;-44
2021/05/12 08:53:57;;;;;;;13.90;9.80;;;16.00;99.90;;;;;;4957880;28;20475;-44
2021/05/12 08:56:24;;;;;;;16.73;9.10;;;16.00;99.90;;;;;;4958252;28;20545;-42
2021/05/12 08:58:50;;;;;;;18.03;11.30;;;16.00;99.90;;;;;;4956633;28;20490;-41
2021/05/12 09:01:17;;;;;;;17.70;10.50;;;16.00;99.90;;;;;;4958000;28;20470;-45
2021/05/12 09:03:45;;;;;;;12.87;9.20;;;16.00;99.90;;;;;;4957808;28;20880;-43
2021/05/12 09:06:11;;;;;;;18.17;10.43;;;16.00;99.90;;;;;;4957891;28;20948;-44
2021/05/12 09:08:38;;;;;;;16.90;10.17;;;16.10;99.90;;;;;;4958198;28;20456;-42
2021/05/12 09:11:05;;;;;;;16.23;10.17;;;16.10;99.90;;;;;;4958094;28;20510;-42
2021/05/12 09:13:37;;;;;;;13.67;10.70;;;16.30;99.90;;;;;;4957283;28;20561;-43
2021/05/12 09:16:17;;;;;;;14.87;9.90;;;16.30;99.90;;;;;;4957529;28;20468;-43
2021/05/12 09:18:45;;;;;;;13.73;9.63;;;16.20;99.90;;;;;;4957259;28;20444;-43
2021/05/12 09:21:12;;;;;;;11.83;9.00;;;16.30;99.90;;;;;;4956795;28;20452;-45
2021/05/12 09:23:39;;;;;;;13.80;9.07;;;16.30;99.90;;;;;;4956947;28;20452;-47
2021/05/12 09:26:11;;;;;;;17.77;11.07;;;16.40;99.90;;;;;;4956746;28;20462;-44
2021/05/12 09:28:38;;;;;;;13.50;9.00;;;16.40;99.90;;;;;;4957358;28;20452;-42
2021/05/12 09:31:11;;;;;;;18.63;10.50;;;16.30;99.90;;;;;;4956633;28;20510;-44
2021/05/12 09:33:40;;;;;;;16.73;10.00;;;16.30;99.90;;;;;;4956440;28;20495;-42
2021/05/12 09:36:08;;;;;;;16.93;11.80;;;16.40;99.90;;;;;;4956732;28;20486;-42
2021/05/12 09:38:35;;;;;;;16.20;13.43;;;16.50;99.90;;;;;;4957172;28;20785;-43
2021/05/12 09:41:03;;;;;;;17.50;12.17;;;16.60;99.90;;;;;;4956335;28;20470;-41
2021/05/12 09:43:31;;;;;;;14.40;9.70;;;16.60;99.90;;;;;;4956281;28;20480;-45
2021/05/12 09:46:16;;;;;;;18.63;11.30;;;16.70;99.90;;;;;;4956281;28;20463;-44
2021/05/12 09:48:47;;;;;;;14.37;8.93;;;16.90;99.90;;;;;;4956628;28;20768;-42
2021/05/12 09:51:21;;;;;;;17.53;11.47;;;17.00;99.90;;;;;;4956384;28;20472;-44
2021/05/12 09:54:10;;;;;;;17.10;11.70;;;16.90;99.90;;;;;;4956447;28;20510;-44
2021/05/12 09:56:39;;;;;;;19.03;12.03;;;16.70;99.90;;;;;;4956551;28;20527;-44
2021/05/12 09:59:08;;;;;;;19.10;13.67;;;16.60;99.90;;;;;;4956697;28;20464;-48
2021/05/12 10:01:48;;;;;;;19.80;12.40;;;16.70;99.90;;;;;;4956698;28;20472;-48
2021/05/12 10:04:27;;;;;;;16.83;10.33;;;16.50;99.90;;;;;;4956467;28;20432;-44
2021/05/12 10:06:56;;;;;;;20.13;12.27;;;16.60;99.90;;;;;;4956603;28;20460;-48
2021/05/12 10:09:24;;;;;;;16.47;11.57;;;16.60;99.90;;;;;;4955846;28;20460;-44
2021/05/12 10:12:04;;;;;;;21.53;12.40;;;16.40;99.90;;;;;;4955641;28;20968;-45
2021/05/12 10:14:32;;;;;;;16.60;11.87;;;16.50;99.90;;;;;;4955965;28;20805;-44
2021/05/12 10:16:59;;;;;;;17.97;12.47;;;16.60;99.90;;;;;;4956114;28;20492;-44
2021/05/12 10:19:25;;;;;;;18.80;11.73;;;16.70;99.90;;;;;;4955820;28;20881;-42
2021/05/12 10:21:52;;;;;;;17.97;13.37;;;16.90;99.90;;;;;;4956334;28;20456;-47
2021/05/12 10:24:20;;;;;;;15.23;10.60;;;17.00;99.90;;;;;;4956169;28;20456;-42
2021/05/12 10:26:47;;;;;;;22.63;12.30;;;17.00;99.90;;;;;;4956169;28;20452;-41
2021/05/12 10:29:14;;;;;;;17.60;12.00;;;17.00;99.90;;;;;;4956360;28;21050;-46
2021/05/12 10:31:41;;;;;;;18.00;12.10;;;17.00;99.90;;;;;;4955422;28;20479;-45
2021/05/12 10:34:07;;;;;;;22.30;13.03;;;17.10;99.90;;;;;;4955448;28;20527;-43
2021/05/12 10:36:33;;;;;;;16.43;10.73;;;17.00;99.90;;;;;;4955533;28;20990;-44
2021/05/12 10:39:03;;;;;;;19.80;12.37;;;17.00;99.90;;;;;;4955365;28;20448;-46
2021/05/12 10:41:39;;;;;;;23.47;13.77;;;16.90;99.90;;;;;;4955669;28;20467;-40
2021/05/12 10:44:12;;;;;;;18.10;11.70;;;16.80;99.90;;;;;;4955444;28;20776;-43
2021/05/12 10:47:03;;;;;;;20.57;12.80;;;16.60;99.90;;;;;;4955430;28;20467;-43
2021/05/12 10:49:30;;;;;;;17.97;13.23;;;16.60;99.90;;;;;;4955667;28;20448;-42
2021/05/12 10:51:57;;;;;;;17.20;11.93;;;16.70;99.90;;;;;;4956034;28;20480;-43
2021/05/12 10:54:46;;;;;;;22.60;12.27;;;16.60;99.90;;;;;;4955969;28;20455;-42
2021/05/12 10:57:46;;;;;;;22.13;12.83;;;16.70;99.90;;;;;;4956034;28;20773;-43
2021/05/12 11:00:15;;;;;;;19.20;10.93;;;16.80;99.90;;;;;;4955405;28;20521;-43
2021/05/12 11:03:00;;;;;;;16.57;12.57;;;17.00;99.90;;;;;;4955201;28;20788;-45
2021/05/12 11:05:58;;;;;;;19.00;12.53;;;16.90;99.90;;;;;;4955289;28;20486;-42
2021/05/12 11:08:25;;;;;;;16.33;10.30;;;16.90;99.90;;;;;;4954709;28;20452;-45
2021/05/12 11:10:54;;;;;;;17.60;12.20;;;17.00;99.90;;;;;;4954722;28;20479;-42
2021/05/12 11:13:24;;;;;;;17.80;11.60;;;17.00;99.90;;;;;;4954827;28;20491;-47
2021/05/12 11:15:52;;;;;;;20.03;11.93;;;17.10;99.90;;;;;;4954822;28;20443;-44
2021/05/12 11:18:50;;;;;;;20.47;14.03;;;17.00;99.90;;;;;;4954940;28;20787;-42
2021/05/12 11:21:37;;;;;;;19.97;10.57;;;17.00;99.90;;;;;;4954081;28;20455;-42
2021/05/12 11:24:19;;;;;;;16.83;11.27;;;17.00;99.90;;;;;;4955194;28;20480;-46
2021/05/12 11:26:56;;;;;;;21.13;11.13;;;17.00;99.90;;;;;;4955020;28;20491;-42
2021/05/12 11:32:11;;;;;;;18.97;14.23;;;17.00;99.90;;;;;;4954638;28;20487;-42
2021/05/12 11:34:38;;;;;;;15.80;11.10;;;17.00;99.90;;;;;;4954406;28;20463;-45
2021/05/12 11:37:07;;;;;;;19.27;11.90;;;16.90;99.90;;;;;;4954544;28;20479;-42
2021/05/12 11:39:33;;;;;;;17.57;11.10;;;16.90;99.90;;;;;;4955241;28;20452;-43
2021/05/12 11:41:59;;;;;;;15.80;11.50;;;16.90;99.90;;;;;;4955195;28;20448;-43
2021/05/12 11:44:26;;;;;;;17.83;10.77;;;16.90;99.90;;;;;;4955200;28;20459;-45
2021/05/12 11:46:52;;;;;;;16.03;10.67;;;16.90;99.90;;;;;;4954797;28;20455;-47
2021/05/12 11:49:20;;;;;;;15.50;11.43;;;17.00;99.90;;;;;;4954086;28;20456;-46
2021/05/12 11:51:48;;;;;;;16.97;11.73;;;16.90;99.90;;;;;;4955525;28;20488;-42
2021/05/12 11:54:16;;;;;;;14.23;11.20;;;17.00;99.90;;;;;;4954891;28;20451;-48
2021/05/12 11:56:44;;;;;;;16.83;12.20;;;17.00;99.90;;;;;;4954523;28;20451;-43
2021/05/12 11:59:13;;;;;;;17.37;12.40;;;17.00;99.90;;;;;;4954398;28;20467;-42
2021/05/12 12:01:43;;;;;;;19.53;11.70;;;17.00;99.90;;;;;;4954241;28;20459;-45
2021/05/12 12:04:19;;;;;;;20.77;11.03;;;17.00;99.90;;;;;;4955065;28;20452;-42
2021/05/12 12:06:46;;;;;;;14.57;9.90;;;16.80;99.90;;;;;;4954374;28;20517;-48
2021/05/12 12:09:15;;;;;;;17.50;11.70;;;17.00;99.90;;;;;;4954489;28;20452;-49
2021/05/12 12:11:42;;;;;;;15.97;11.23;;;17.00;99.90;;;;;;4953041;28;20884;-44
2021/05/12 12:14:09;;;;;;;14.50;10.80;;;17.00;99.90;;;;;;4957115;28;20443;-44
2021/05/12 12:16:37;;;;;;;20.93;11.33;;;17.10;99.90;;;;;;4954401;28;20574;-44
2021/05/12 12:19:12;;;;;;;17.23;11.57;;;17.10;99.90;;;;;;4955358;28;20460;-42
2021/05/12 12:21:39;;;;;;;15.90;10.13;;;17.10;99.90;;;;;;4953500;29;20435;-45
2021/05/12 12:24:12;;;;;;;16.93;11.83;;;17.10;99.90;;;;;;4953243;28;20485;-46
2021/05/12 12:26:41;;;;;;;19.13;12.33;;;17.10;99.90;;;;;;4953516;28;20762;-45
2021/05/12 12:29:13;;;;;;;15.23;10.70;;;17.10;99.90;;;;;;4951861;28;20440;-43
2021/05/12 12:31:44;;;;;;;19.23;14.13;;;17.10;99.90;;;;;;4953038;28;20475;-44
2021/05/12 12:34:15;;;;;;;17.07;12.57;;;17.10;99.90;;;;;;4954772;28;20479;-41
2021/05/12 12:36:57;;;;;;;19.57;11.87;;;17.00;99.90;;;;;;4950396;28;20475;-42
2021/05/12 12:39:41;;;;;;;19.20;12.70;;;17.00;99.90;;;;;;4954876;28;20456;-45
2021/05/12 12:42:08;;;;;;;15.40;11.83;;;16.90;99.90;;;;;;4952326;28;20436;-42
2021/05/12 12:44:35;;;;;;;20.93;13.57;;;17.00;99.90;;;;;;4952813;28;20455;-42
2021/05/12 12:47:02;;;;;;;16.90;11.70;;;17.00;99.90;;;;;;4954739;28;20440;-42
2021/05/12 12:49:41;;;;;;;18.17;12.77;;;17.10;99.90;;;;;;4957783;28;21067;-43
2021/05/12 12:52:12;;;;;;;21.20;14.00;;;17.20;99.90;;;;;;4961941;28;20979;-45
2021/05/12 12:54:46;;;;;;;16.83;11.37;;;17.20;99.90;;;;;;4954292;29;20529;-46
2021/05/12 12:57:12;;;;;;;15.30;11.10;;;17.10;99.90;;;;;;4958638;28;20455;-44
2021/05/12 13:00:15;;;;;;;19.80;11.80;;;17.20;99.90;;;;;;4956962;28;20456;-42
2021/05/12 13:02:54;;;;;;;16.73;12.33;;;17.20;99.90;;;;;;4966038;28;20505;-43
2021/05/12 13:05:22;;;;;;;18.77;12.20;;;17.30;99.90;;;;;;4955176;28;20459;-42
2021/05/12 13:07:51;;;;;;;20.97;12.90;;;17.20;99.90;;;;;;4955935;28;20920;-45
2021/05/12 13:10:25;;;;;;;18.37;11.50;;;17.20;99.90;;;;;;4954586;28;20482;-45
2021/05/12 13:12:52;;;;;;;16.23;12.73;;;17.20;99.90;;;;;;4971687;29;20518;-42
2021/05/12 13:15:29;;;;;;;16.17;12.07;;;17.20;99.90;;;;;;4969153;29;20441;-43
2021/05/12 13:17:58;;;;;;;20.80;12.43;;;17.10;99.90;;;;;;4973867;28;20451;-43
2021/05/12 13:20:26;;;;;;;15.90;11.67;;;17.00;99.90;;;;;;4973000;28;20463;-45
2021/05/12 13:23:07;;;;;;;17.17;12.90;;;17.00;99.90;;;;;;4973524;28;20452;-48
2021/05/12 13:25:34;;;;;;;19.27;11.50;;;17.00;99.90;;;;;;4972485;28;20443;-43
2021/05/12 13:28:01;;;;;;;14.40;11.10;;;17.00;99.90;;;;;;4973284;28;20486;-43
2021/05/12 13:30:27;;;;;;;14.20;11.27;;;17.00;99.90;;;;;;4973713;28;20456;-43
2021/05/12 13:32:55;;;;;;;17.00;12.20;;;16.90;99.90;;;;;;4972839;28;20499;-43
2021/05/12 13:35:22;;;;;;;13.63;10.30;;;16.90;99.90;;;;;;4973356;28;20448;-41
2021/05/12 13:37:50;;;;;;;17.53;9.90;;;17.00;99.90;;;;;;4975261;28;20550;-42
2021/05/12 13:40:17;;;;;;;13.30;9.80;;;16.90;99.90;;;;;;4984117;28;20471;-44
2021/05/12 13:42:46;;;;;;;13.00;8.70;;;16.90;99.90;;;;;;4973930;28;20444;-44
2021/05/12 13:45:15;;;;;;;14.80;8.63;;;16.90;99.90;;;;;;4972422;28;20512;-42
2021/05/12 13:47:42;;;;;;;10.87;9.03;;;17.00;99.90;;;;;;4980851;28;20475;-44
2021/05/12 13:50:12;;;;;;;10.13;8.47;;;17.10;99.90;;;;;;4972284;28;20456;-42
2021/05/12 13:52:45;;;;;;;9.63;6.00;;;17.10;99.90;;;;;;4976680;28;20467;-43
2021/05/12 13:55:19;;;;;;;8.20;6.00;;;17.10;99.90;;;;;;4972260;28;20459;-44
2021/05/12 14:00:49;;;;;;;8.77;7.23;;;17.10;99.90;;;;;;4938301;28;20444;-43
2021/05/12 14:05:54;;;;;;;7.67;5.97;;;16.90;99.90;;;;;;5492386;22;20506;-42
2021/05/12 14:08:30;;;;;;;9.03;7.30;;;17.00;99.90;;;;;;5040501;22;20502;-46
2021/05/12 14:16:22;;;;;;;7.00;6.00;;;17.00;99.90;;;;;;4934715;22;20466;-44
2021/05/12 14:23:59;;;;;;;10.50;7.53;;;17.10;99.90;;;;;;5442446;22;20500;-43
2021/05/12 14:26:26;;;;;;;11.80;9.30;;;17.10;99.90;;;;;;4958625;28;20466;-41
2021/05/12 14:28:54;;;;;;;14.57;9.20;;;17.10;99.90;;;;;;4954041;28;20582;-44
2021/05/12 14:33:57;;;;;;;12.97;9.13;;;17.00;99.90;;;;;;5529249;22;20966;-46
2021/05/12 14:36:24;;;;;;;10.37;7.93;;;17.00;99.90;;;;;;4951027;28;20954;-43
2021/05/12 14:38:51;;;;;;;10.60;6.90;;;16.90;99.90;;;;;;5599890;22;20592;-43
2021/05/12 14:41:17;;;;;;;8.27;7.03;;;16.90;99.90;;;;;;4938679;29;20548;-43
2021/05/12 14:43:43;;;;;;;7.03;6.10;;;17.00;99.90;;;;;;4954311;29;20457;-43
2021/05/12 14:46:10;;;;;;;13.87;7.13;;;17.00;99.90;;;;;;4952074;29;20475;-45
2021/05/12 14:48:41;;;;;;;8.10;6.67;;;17.00;99.90;;;;;;4939063;29;20459;-43
2021/05/12 14:51:13;;;;;;;9.40;6.80;;;16.90;99.90;;;;;;4933405;28;20488;-43
2021/05/12 14:53:39;;;;;;;7.87;7.07;;;17.00;99.90;;;;;;5280597;22;20494;-43
2021/05/12 14:56:19;;;;;;;10.13;7.00;;;16.90;99.90;;;;;;4976919;28;20444;-48
2021/05/12 15:06:46;;;;;;;10.60;7.07;;;16.70;99.90;;;;;;5389115;22;20497;-44
2021/05/12 15:09:12;;;;;;;8.67;7.13;;;16.70;99.90;;;;;;4937506;28;20822;-45
2021/05/12 15:11:40;;;;;;;10.80;6.63;;;16.70;99.90;;;;;;4932165;29;20477;-43
2021/05/12 15:14:07;;;;;;;9.00;7.50;;;16.70;99.90;;;;;;4938781;29;20613;-42
2021/05/12 15:16:34;;;;;;;12.07;8.00;;;16.70;99.90;;;;;;4934008;29;20964;-42
2021/05/12 15:19:00;;;;;;;9.53;7.70;;;16.70;99.90;;;;;;4935671;29;20474;-43
2021/05/12 15:21:27;;;;;;;8.50;7.10;;;16.80;99.90;;;;;;4929182;28;20453;-43
2021/05/12 15:23:55;;;;;;;8.90;7.60;;;16.80;99.90;;;;;;4936072;28;20448;-43
2021/05/12 15:26:21;;;;;;;9.60;5.97;;;16.80;99.90;;;;;;4929703;29;20861;-43
2021/05/12 15:28:48;;;;;;;8.90;6.67;;;16.80;99.90;;;;;;4938370;29;20939;-42
2021/05/12 15:31:14;;;;;;;11.50;7.23;;;16.80;99.90;;;;;;4944062;28;20482;-43
2021/05/12 15:33:41;;;;;;;9.50;6.60;;;16.80;99.90;;;;;;4944884;29;20793;-47
2021/05/12 15:36:08;;;;;;;13.73;6.50;;;16.80;99.90;;;;;;4947131;29;20463;-44
2021/05/12 15:38:34;;;;;;;8.30;5.60;;;16.80;99.90;;;;;;4945374;28;20467;-45
2021/05/12 15:41:02;;;;;;;8.20;5.60;;;16.90;99.90;;;;;;4938319;28;21133;-42
2021/05/12 15:43:28;;;;;;;8.13;5.63;;;16.90;99.90;;;;;;4939869;29;20448;-48
2021/05/12 15:45:55;;;;;;;7.40;5.83;;;16.90;99.90;;;;;;4932756;29;20457;-46
2021/05/12 15:48:23;;;;;;;7.70;6.50;;;16.90;99.90;;;;;;4932984;29;20453;-42
2021/05/12 15:50:50;;;;;;;16.17;7.00;;;16.90;99.90;;;;;;4943911;29;20542;-43
2021/05/12 15:53:17;;;;;;;9.57;6.40;;;16.90;99.90;;;;;;4943475;29;20828;-43
2021/05/12 15:55:47;;;;;;;10.90;6.17;;;16.90;99.90;;;;;;4940029;29;20456;-48
2021/05/12 15:58:15;;;;;;;7.40;6.20;;;16.80;99.90;;;;;;4947604;29;20913;-42
2021/05/12 16:00:41;;;;;;;7.27;6.07;;;16.80;99.90;;;;;;4942199;28;20812;-46
2021/05/12 16:03:09;;;;;;;9.20;5.80;;;16.70;99.90;;;;;;4940042;29;20503;-43
2021/05/12 16:05:37;;;;;;;11.07;7.80;;;16.70;99.90;;;;;;4934593;29;20487;-45
2021/05/12 16:08:04;;;;;;;10.33;6.43;;;16.70;99.90;;;;;;4947127;28;20483;-43
2021/05/12 16:10:33;;;;;;;8.33;6.50;;;16.70;99.90;;;;;;4937910;29;20456;-43
2021/05/12 16:13:00;;;;;;;8.13;6.60;;;16.70;99.90;;;;;;4949286;28;20816;-49
2021/05/12 16:15:28;;;;;;;7.23;5.70;;;16.70;99.90;;;;;;4943937;28;20448;-45
2021/05/12 16:17:55;;;;;;;8.10;7.07;;;16.70;99.90;;;;;;4942896;28;20448;-43
2021/05/12 16:20:22;;;;;;;8.23;6.70;;;16.60;99.90;;;;;;4943735;28;20467;-44
2021/05/12 16:22:49;;;;;;;7.53;6.10;;;16.70;99.90;;;;;;4951812;28;20451;-43
2021/05/12 16:25:16;;;;;;;8.43;6.27;;;16.60;99.90;;;;;;4944327;28;20456;-44
2021/05/12 16:27:43;;;;;;;7.97;5.60;;;16.50;99.90;;;;;;4951753;29;20444;-45
2021/05/12 16:30:11;;;;;;;9.80;6.83;;;16.40;99.90;;;;;;4936906;28;20496;-43
2021/05/12 16:32:38;;;;;;;9.40;6.37;;;16.30;99.90;;;;;;4942996;28;20507;-44
2021/05/12 16:35:07;;;;;;;10.17;6.03;;;16.30;99.90;;;;;;4931370;29;20456;-45
2021/05/12 16:37:37;;;;;;;11.67;7.37;;;16.30;99.90;;;;;;4932763;29;20865;-43
2021/05/12 16:40:05;;;;;;;8.70;6.90;;;16.20;99.90;;;;;;4927627;29;20438;-43
2021/05/12 16:42:31;;;;;;;13.53;7.30;;;16.20;99.90;;;;;;4942496;29;20463;-42
2021/05/12 16:44:58;;;;;;;7.73;5.60;;;16.20;99.90;;;;;;4948248;28;20459;-42
2021/05/12 16:47:25;;;;;;;7.47;5.80;;;16.30;99.90;;;;;;4950378;29;20463;-41
2021/05/12 16:49:52;;;;;;;7.57;6.30;;;16.40;99.90;;;;;;4940978;29;20539;-46
2021/05/12 16:52:19;;;;;;;8.47;5.83;;;16.40;99.90;;;;;;4940945;28;20567;-47
2021/05/12 16:54:46;;;;;;;10.23;6.57;;;16.40;99.90;;;;;;4944661;28;20986;-45
2021/05/12 16:57:12;;;;;;;9.40;6.83;;;16.40;99.90;;;;;;4940839;29;20453;-44
2021/05/12 16:59:39;;;;;;;7.80;6.40;;;16.40;99.90;;;;;;4935544;29;20456;-49
2021/05/12 17:02:05;;;;;;;9.60;7.10;;;16.40;99.90;;;;;;4933433;29;20449;-49
2021/05/12 17:04:32;;;;;;;11.23;7.43;;;16.50;99.90;;;;;;4946626;29;20516;-53
2021/05/12 17:07:00;;;;;;;9.57;7.57;;;16.50;99.90;;;;;;4936259;29;20483;-44
2021/05/12 17:09:31;;;;;;;9.93;7.37;;;16.40;99.90;;;;;;4938648;28;20456;-46
2021/05/12 17:12:02;;;;;;;9.77;7.50;;;16.40;99.90;;;;;;4945185;28;21006;-49
2021/05/12 17:14:28;;;;;;;10.60;7.13;;;16.40;99.90;;;;;;4927241;29;20515;-47
2021/05/12 17:16:55;;;;;;;12.93;7.30;;;16.40;99.90;;;;;;4938598;29;20900;-49
2021/05/12 17:19:22;;;;;;;17.03;9.00;;;16.40;99.90;;;;;;4938920;28;20500;-48
2021/05/12 17:21:48;;;;;;;10.57;8.37;;;16.40;99.90;;;;;;4946910;29;20925;-46
2021/05/12 17:24:16;;;;;;;13.63;8.67;;;16.30;99.90;;;;;;4944806;29;20461;-43
2021/05/12 17:26:42;;;;;;;16.43;9.03;;;16.20;99.90;;;;;;4946709;28;20793;-44
2021/05/12 17:29:08;;;;;;;11.40;7.70;;;16.10;99.90;;;;;;4946069;29;20472;-52
2021/05/12 17:31:35;;;;;;;12.83;9.33;;;16.00;99.90;;;;;;4938080;28;20461;-47
2021/05/12 17:34:01;;;;;;;14.17;8.77;;;16.00;99.90;;;;;;4938971;29;21825;-47
2021/05/12 17:36:28;;;;;;;14.43;9.70;;;15.90;99.90;;;;;;4939134;29;20452;-44
2021/05/12 17:38:54;;;;;;;13.60;11.10;;;15.80;99.90;;;;;;4938205;29;20466;-49
2021/05/12 17:41:21;;;;;;;13.37;10.57;;;15.80;99.90;;;;;;4947302;28;20448;-47
2021/05/12 17:43:49;;;;;;;15.70;11.53;;;15.80;99.90;;;;;;4936841;29;20463;-47
2021/05/12 17:46:16;;;;;;;14.97;11.00;;;15.80;99.90;;;;;;4938624;29;20828;-47
2021/05/12 17:48:43;;;;;;;18.40;12.00;;;15.70;99.90;;;;;;4938566;29;20475;-45
2021/05/12 17:51:10;;;;;;;22.63;12.13;;;15.70;99.90;;;;;;4946635;29;20526;-46
2021/05/12 17:53:36;;;;;;;16.70;10.60;;;15.60;99.90;;;;;;4939435;29;20487;-47
2021/05/12 17:56:03;;;;;;;16.67;11.23;;;15.50;99.90;;;;;;4941981;28;20475;-47
2021/05/12 17:58:30;;;;;;;15.17;10.43;;;15.50;99.90;;;;;;4943100;28;20463;-46
2021/05/12 18:00:57;;;;;;;17.80;11.30;;;15.50;99.90;;;;;;4938397;28;21069;-44
2021/05/12 18:03:27;;;;;;;13.83;10.90;;;15.50;99.90;;;;;;4944509;29;20959;-44
2021/05/12 18:05:56;;;;;;;17.97;12.63;;;15.50;99.90;;;;;;4949877;29;20501;-48
2021/05/12 18:08:24;;;;;;;15.67;9.83;;;15.40;99.90;;;;;;4945279;29;20453;-48
2021/05/12 18:10:56;;;;;;;15.13;10.57;;;15.40;99.90;;;;;;4952031;29;20534;-49
2021/05/12 18:13:35;;;;;;;12.43;9.77;;;15.40;99.90;;;;;;4940285;29;20493;-45
2021/05/12 18:18:46;;;;;;;14.33;9.47;;;15.30;99.90;;;;;;4938199;29;20912;-46
2021/05/12 18:21:13;;;;;;;15.83;11.60;;;15.30;99.90;;;;;;4940147;29;20449;-47
2021/05/12 18:23:39;;;;;;;13.07;9.83;;;15.40;99.90;;;;;;4927297;29;20460;-45
2021/05/12 18:26:06;;;;;;;16.10;11.10;;;15.40;99.90;;;;;;4915191;29;20453;-48
2021/05/12 18:28:33;;;;;;;19.20;12.43;;;15.40;99.90;;;;;;4916573;29;21035;-46
2021/05/12 18:30:59;;;;;;;16.00;11.30;;;15.30;99.90;;;;;;4916857;29;20944;-46
2021/05/12 18:33:28;;;;;;;14.40;11.30;;;15.40;99.90;;;;;;4916318;29;20511;-48
2021/05/12 18:36:07;;;;;;;17.93;12.77;;;15.40;99.90;;;;;;4915904;29;20540;-45
2021/05/12 18:38:36;;;;;;;21.03;14.73;;;15.40;99.90;;;;;;4931694;29;20522;-46
2021/05/12 18:41:02;;;;;;;19.13;13.43;;;15.40;99.90;;;;;;4937398;29;20453;-49
2021/05/12 18:43:29;;;;;;;18.90;15.00;;;15.40;99.90;;;;;;4936565;29;20445;-48
2021/05/12 18:45:57;;;;;;;16.87;13.07;;;15.40;99.90;;;;;;4934085;29;20440;-49
2021/05/12 18:48:23;;;;;;;18.97;13.73;;;15.40;99.90;;;;;;4937541;29;20453;-47
2021/05/12 18:50:51;;;;;;;16.80;12.60;;;15.40;99.90;;;;;;4924401;29;20460;-46
2021/05/12 18:53:17;;;;;;;17.87;12.93;;;15.40;99.90;;;;;;4917270;28;20485;-48